1922 NOT_NAMED (1922241N24130)


IBTrACS version v04r00. Visit IBTrACS website for data access.
Please direct all questions to the IBTrACS Q and A forum

Storm track - Intensity - Wind Radii - Intensity Data - Source Data - All data

Summary Information

Storm ID 1922241N24130
Start Aug 28 22Z
End Aug 31 22Z
ATCF IDs
Track status Best track data.

Storm track plot

Map of storm track

Intensity plots

No Intensity information for this storm


Radial wind information

No radial wind information for this storm


Position and Intensity Table

BASIN ISO_TIME_________ NATURE LAT LON
degrees north degrees east
WP 1922-08-28 22:00:00 NR 23.90 129.90
WP 1922-08-29 00:00:00 NR 24.08 129.86
WP 03:00:00 NR 24.35 129.80
WP 06:00:00 NR 24.60 129.72
WP 09:00:00 NR 24.83 129.63
WP 10:00:00 NR 24.90 129.60
WP 12:00:00 NR 25.03 129.52
WP 15:00:00 NR 25.21 129.38
WP 18:00:00 NR 25.37 129.20
WP 21:00:00 NR 25.54 128.98
WP 22:00:00 NR 25.60 128.90
WP 1922-08-30 00:00:00 NR 25.72 128.72
WP 03:00:00 NR 25.91 128.41
WP 06:00:00 NR 26.11 128.07
WP 09:00:00 NR 26.33 127.72
WP 10:00:00 NR 26.40 127.60
WP 12:00:00 NR 26.56 127.36
WP 15:00:00 NR 26.82 126.99
WP 18:00:00 NR 27.08 126.63
WP 21:00:00 NR 27.32 126.30
WP 22:00:00 NR 27.40 126.20
WP 1922-08-31 00:00:00 NR 27.53 126.03
WP 03:00:00 NR 27.71 125.81
WP 06:00:00 NR 27.88 125.60
WP 09:00:00 NR 28.05 125.38
WP 10:00:00 NR 28.10 125.30
WP 12:00:00 NR 28.21 125.12
WP 15:00:00 NR 28.39 124.81
WP 18:00:00 NR 28.56 124.48
WP 21:00:00 NR 28.74 124.12
WP 22:00:00 NR 28.80 124.00

Source Information

Agency Information
USA
TOKYO
CMA
HKO
NEWDELHI
REUNION
BOM
NADI
WELLINGTON
DS824
TD9636 cons_worldwide_trop_cyclone_18710101-19891231-003:Line=6710
TD9635
NEUMANN
MLC

All available IBTrACS Data

SEASON BASIN SUBBASIN ISO_TIME_________ NATURE LAT LON DIST2LAND LANDFALL IFLAG USA SSHS TD9636 LAT TD9636 LON TD9636 STAGE STORM SPEED STORM DIR
Year degrees north degrees east km km 1 degrees north degrees east kts degrees
1922 WP MM 1922-08-28 22:00:00 NR 23.90 129.90 796 774 __________O___ -1 23.90 129.90 4 6 347
1922 WP MM 1922-08-29 00:00:00 NR 24.08 129.86 774 753 __________P___ -1 24.08 129.86 4 6 348
1922 WP MM 03:00:00 NR 24.35 129.80 753 721 __________P___ -1 24.35 129.80 4 5 347
1922 WP MM 06:00:00 NR 24.60 129.72 721 699 __________P___ -1 24.60 129.72 4 5 343
1922 WP MM 09:00:00 NR 24.83 129.63 700 689 __________P___ -1 24.83 129.63 4 5 340
1922 WP MM 10:00:00 NR 24.90 129.60 689 678 __________O___ -1 24.90 129.60 4 5 333
1922 WP MM 12:00:00 NR 25.03 129.52 680 659 __________P___ -1 25.03 129.52 4 4 327
1922 WP MM 15:00:00 NR 25.21 129.38 659 642 __________P___ -1 25.21 129.38 4 5 320
1922 WP MM 18:00:00 NR 25.37 129.20 642 633 __________P___ -1 25.37 129.20 4 5 313
1922 WP MM 21:00:00 NR 25.54 128.98 636 625 __________P___ -1 25.54 128.98 4 5 310
1922 WP MM 22:00:00 NR 25.60 128.90 628 620 __________O___ -1 25.60 128.90 4 6 307
1922 WP MM 1922-08-30 00:00:00 NR 25.72 128.72 623 608 __________P___ -1 25.72 128.72 4 6 305
1922 WP MM 03:00:00 NR 25.91 128.41 612 598 __________P___ -1 25.91 128.41 4 7 304
1922 WP MM 06:00:00 NR 26.11 128.07 602 589 __________P___ -1 26.11 128.07 4 7 304
1922 WP MM 09:00:00 NR 26.33 127.72 589 581 __________P___ -1 26.33 127.72 4 8 304
1922 WP MM 10:00:00 NR 26.40 127.60 581 565 __________O___ -1 26.40 127.60 4 8 307
1922 WP MM 12:00:00 NR 26.56 127.36 568 538 __________P___ -1 26.56 127.36 4 8 308
1922 WP MM 15:00:00 NR 26.82 126.99 538 507 __________P___ -1 26.82 126.99 4 8 309
1922 WP MM 18:00:00 NR 27.08 126.63 507 471 __________P___ -1 27.08 126.63 4 8 309
1922 WP MM 21:00:00 NR 27.32 126.30 471 457 __________P___ -1 27.32 126.30 4 8 310
1922 WP MM 22:00:00 NR 27.40 126.20 457 434 __________O___ -1 27.40 126.20 4 6 311
1922 WP MM 1922-08-31 00:00:00 NR 27.53 126.03 434 407 __________P___ -1 27.53 126.03 4 6 312
1922 WP MM 03:00:00 NR 27.71 125.81 407 379 __________P___ -1 27.71 125.81 4 5 313
1922 WP MM 06:00:00 NR 27.88 125.60 379 357 __________P___ -1 27.88 125.60 4 5 311
1922 WP MM 09:00:00 NR 28.05 125.38 357 344 __________P___ -1 28.05 125.38 4 5 309
1922 WP MM 10:00:00 NR 28.10 125.30 344 321 __________O___ -1 28.10 125.30 4 6 306
1922 WP MM 12:00:00 NR 28.21 125.12 321 286 __________P___ -1 28.21 125.12 4 6 304
1922 WP MM 15:00:00 NR 28.39 124.81 286 252 __________P___ -1 28.39 124.81 4 7 302
1922 WP MM 18:00:00 NR 28.56 124.48 252 211 __________P___ -1 28.56 124.48 4 7 300
1922 WP MM 21:00:00 NR 28.74 124.12 211 199 __________P___ -1 28.74 124.12 4 7 300
1922 WP MM 22:00:00 NR 28.80 124.00 199 __________O___ -1 28.80 124.00 4 7 300